Time;durP1;ratioP1;P1;durP2;ratioP2;P2;SDS_P1;SDS_P2;PMS_P1;PMS_P2;Temp;Humidity;BMP_temperature;BMP_pressure;BME280_temperature;BME280_humidity;BME280_pressure;Samples;Min_cycle;Max_cycle;Signal;HPM_P1;HPM_P2
2022/07/11 00:06:20;;;;;;;2.60;2.00;;;13.30;99.90;;;;;;4978545;28;20491;-74
2022/07/11 00:09:16;;;;;;;4.80;2.13;;;13.20;99.90;;;;;;4975934;28;20487;-73
2022/07/11 00:12:10;;;;;;;2.50;2.00;;;13.30;99.90;;;;;;4984346;28;20836;-73
2022/07/11 00:15:32;;;;;;;5.17;2.70;;;13.20;99.90;;;;;;4981384;28;20548;-74
2022/07/11 00:18:37;;;;;;;3.00;2.23;;;13.20;99.90;;;;;;4976045;28;20461;-73
2022/07/11 00:21:42;;;;;;;4.00;2.37;;;13.10;99.90;;;;;;4973905;28;22102;-73
2022/07/11 00:28:11;;;;;;;4.93;2.13;;;13.10;99.90;;;;;;4977470;28;20582;-73
2022/07/11 00:31:46;;;;;;;5.57;2.30;;;13.00;99.90;;;;;;4978367;28;20522;-74
2022/07/11 00:35:17;;;;;;;3.93;2.30;;;13.00;99.90;;;;;;4978238;28;20473;-73
2022/07/11 00:38:28;;;;;;;3.23;2.30;;;13.00;99.90;;;;;;4982076;28;20457;-73
2022/07/11 00:41:36;;;;;;;4.40;2.30;;;12.90;99.90;;;;;;4969882;28;20459;-73
2022/07/11 00:44:49;;;;;;;2.93;1.97;;;12.90;99.90;;;;;;4998349;22;20484;-70
2022/07/11 00:47:56;;;;;;;5.10;2.07;;;12.90;99.90;;;;;;4979003;28;20924;-70
2022/07/11 00:51:10;;;;;;;1.93;1.80;;;12.90;99.90;;;;;;4984757;28;20466;-70
2022/07/11 00:54:23;;;;;;;3.80;2.23;;;12.80;99.90;;;;;;4976605;28;20445;-70
2022/07/11 00:57:35;;;;;;;2.73;2.03;;;12.80;99.90;;;;;;4984538;28;20453;-70
2022/07/11 01:00:38;;;;;;;2.70;2.20;;;12.80;99.90;;;;;;4981699;28;20541;-70
2022/07/11 01:03:41;;;;;;;4.17;2.20;;;12.70;99.90;;;;;;4982248;28;20465;-70
2022/07/11 01:07:21;;;;;;;2.20;2.00;;;12.70;99.90;;;;;;4973635;28;20512;-71
2022/07/11 01:10:31;;;;;;;5.13;2.33;;;12.70;99.90;;;;;;4982845;28;20600;-70
2022/07/11 01:13:41;;;;;;;3.83;2.00;;;12.70;99.90;;;;;;4974107;28;20553;-70
2022/07/11 01:20:20;;;;;;;2.10;1.90;;;12.60;99.90;;;;;;4982381;28;20449;-71
2022/07/11 01:26:51;;;;;;;2.67;2.10;;;12.60;99.90;;;;;;4979188;28;20531;-71
2022/07/11 01:30:08;;;;;;;2.40;1.70;;;12.50;99.90;;;;;;4976263;28;20469;-71
2022/07/11 01:33:25;;;;;;;3.57;1.97;;;12.50;99.90;;;;;;4977216;28;20935;-70
2022/07/11 01:36:42;;;;;;;4.43;2.47;;;12.50;99.90;;;;;;4976642;27;4091601;-70
2022/07/11 01:43:18;;;;;;;2.63;1.70;;;12.40;99.90;;;;;;5092754;28;20527;-70
2022/07/11 01:46:39;;;;;;;2.70;1.90;;;12.40;99.90;;;;;;5093770;28;20975;-70
2022/07/11 01:49:41;;;;;;;3.60;1.97;;;12.40;99.90;;;;;;5091961;28;20464;-71
2022/07/11 01:55:57;;;;;;;1.90;1.50;;;12.40;99.90;;;;;;5085634;28;20549;-70
2022/07/11 01:59:20;;;;;;;2.37;1.60;;;12.30;99.90;;;;;;5088369;28;20528;-70
2022/07/11 02:02:26;;;;;;;5.33;1.97;;;12.20;99.90;;;;;;5088272;28;21115;-70
2022/07/11 02:05:23;;;;;;;2.80;2.00;;;12.20;99.90;;;;;;5092277;28;20455;-71
2022/07/11 02:09:09;;;;;;;3.93;2.13;;;12.20;99.90;;;;;;5090839;28;20455;-71
2022/07/11 02:16:16;;;;;;;3.13;2.10;;;12.20;99.90;;;;;;5092119;28;20533;-71
2022/07/11 02:19:45;;;;;;;2.53;1.70;;;12.20;99.90;;;;;;5090057;28;20824;-71
2022/07/11 02:23:07;;;;;;;2.43;1.90;;;12.20;99.90;;;;;;5087837;28;20512;-71
2022/07/11 02:26:23;;;;;;;2.13;1.60;;;12.20;99.90;;;;;;5093531;28;20501;-71
2022/07/11 02:29:22;;;;;;;2.30;1.70;;;12.20;99.90;;;;;;5088111;28;20979;-71
2022/07/11 02:32:38;;;;;;;3.10;1.60;;;12.20;99.90;;;;;;5097399;28;20448;-71
2022/07/11 02:42:29;;;;;;;2.60;2.23;;;12.10;99.90;;;;;;5088178;28;20539;-71
2022/07/11 02:45:42;;;;;;;2.10;1.90;;;12.00;99.90;;;;;;5097844;28;20460;-71
2022/07/11 02:48:36;;;;;;;1.90;1.80;;;12.00;99.90;;;;;;5087365;28;20437;-71
2022/07/11 02:51:51;;;;;;;4.90;2.13;;;12.00;99.90;;;;;;5086295;28;20936;-71
2022/07/11 02:57:57;;;;;;;2.33;1.80;;;12.00;99.90;;;;;;5085172;28;20469;-71
2022/07/11 03:00:54;;;;;;;5.37;1.63;;;12.00;99.90;;;;;;5081411;28;20459;-70
2022/07/11 03:07:09;;;;;;;1.73;1.50;;;11.90;99.90;;;;;;5093845;28;20450;-70
2022/07/11 03:10:24;;;;;;;2.10;1.60;;;11.90;99.90;;;;;;5093252;28;20468;-70
2022/07/11 03:17:09;;;;;;;4.23;1.90;;;11.80;99.90;;;;;;5053710;28;22359;-70
2022/07/11 03:20:28;;;;;;;3.80;2.20;;;11.80;99.90;;;;;;5074709;28;20568;-70
2022/07/11 03:23:44;;;;;;;2.90;1.90;;;11.80;99.90;;;;;;5073792;28;20456;-70
2022/07/11 03:26:56;;;;;;;1.70;1.60;;;11.80;99.90;;;;;;5076514;28;20452;-71
2022/07/11 03:30:16;;;;;;;;;;;;;;;;;;;;;
2022/07/11 03:33:15;;;;;;;2.30;1.80;;;11.80;99.90;;;;;;5074946;28;21011;-71
2022/07/11 03:36:22;;;;;;;1.70;1.60;;;11.70;99.90;;;;;;5074324;28;20733;-70
2022/07/11 03:39:31;;;;;;;2.20;2.00;;;11.70;99.90;;;;;;5063410;28;20535;-71
2022/07/11 03:42:33;;;;;;;2.33;1.63;;;11.70;99.90;;;;;;5083226;28;20449;-71
2022/07/11 03:45:49;;;;;;;2.93;1.90;;;11.70;99.90;;;;;;5076125;28;20540;-70
2022/07/11 03:49:11;;;;;;;2.10;1.80;;;11.70;99.90;;;;;;5078699;28;20503;-71
2022/07/11 03:52:36;;;;;;;1.90;1.80;;;11.70;99.90;;;;;;5070972;28;20982;-71
2022/07/11 03:55:55;;;;;;;2.40;2.20;;;11.70;99.90;;;;;;5079154;28;21009;-71
2022/07/11 03:59:04;;;;;;;2.50;1.70;;;11.70;99.90;;;;;;5071291;28;20951;-71
2022/07/11 04:01:59;;;;;;;1.93;1.80;;;11.70;99.90;;;;;;5072887;28;20804;-72
2022/07/11 04:05:05;;;;;;;1.97;1.77;;;11.70;99.90;;;;;;5096471;28;20492;-70
2022/07/11 04:08:15;;;;;;;2.83;1.90;;;11.70;99.90;;;;;;5091014;28;20498;-70
2022/07/11 04:11:36;;;;;;;3.03;1.97;;;11.70;99.90;;;;;;5079681;28;20452;-70
2022/07/11 04:18:24;;;;;;;3.00;1.80;;;11.80;99.90;;;;;;5025918;28;20811;-71
2022/07/11 04:21:42;;;;;;;1.80;1.70;;;11.80;99.90;;;;;;5077644;28;20524;-70
2022/07/11 04:24:47;;;;;;;3.43;1.83;;;11.80;99.90;;;;;;5074119;28;20472;-70
2022/07/11 04:28:11;;;;;;;2.07;1.70;;;11.90;99.90;;;;;;5074286;28;20452;-71
2022/07/11 04:31:09;;;;;;;2.70;1.90;;;11.90;99.90;;;;;;5076848;28;20537;-70
2022/07/11 04:34:36;;;;;;;2.80;1.90;;;11.90;99.90;;;;;;5075908;28;20438;-71
2022/07/11 04:38:09;;;;;;;2.13;1.83;;;12.00;99.90;;;;;;5076478;28;20529;-71
2022/07/11 04:41:05;;;;;;;2.33;2.00;;;12.10;99.90;;;;;;5072780;28;20471;-71
2022/07/11 04:43:57;;;;;;;2.13;1.73;;;12.10;99.90;;;;;;5073954;28;20514;-70
2022/07/11 04:50:27;;;;;;;2.20;2.10;;;12.20;99.90;;;;;;5076714;28;20502;-71
2022/07/11 04:53:43;;;;;;;4.13;1.87;;;12.20;99.90;;;;;;5077066;28;21023;-71
2022/07/11 04:56:53;;;;;;;4.40;2.57;;;12.30;99.90;;;;;;5073564;28;20803;-70
2022/07/11 04:59:50;;;;;;;2.40;2.10;;;12.40;99.90;;;;;;5066922;28;20945;-70
2022/07/11 05:03:11;;;;;;;3.07;2.20;;;12.40;99.90;;;;;;5068620;28;20952;-72
2022/07/11 05:10:00;;;;;;;4.00;2.20;;;12.60;99.90;;;;;;5069380;28;20831;-72
2022/07/11 05:12:51;;;;;;;3.97;2.30;;;12.70;99.90;;;;;;5075178;28;20520;-71
2022/07/11 05:15:44;;;;;;;3.50;2.27;;;12.80;99.90;;;;;;5073395;28;20468;-71
2022/07/11 05:18:37;;;;;;;3.33;2.50;;;12.80;99.90;;;;;;5075809;28;20467;-71
2022/07/11 05:21:27;;;;;;;3.43;2.50;;;12.80;99.90;;;;;;5072344;28;20469;-71
2022/07/11 05:24:17;;;;;;;3.80;2.70;;;12.90;99.90;;;;;;5069264;28;22607;-71
2022/07/11 05:27:13;;;;;;;6.40;2.50;;;13.00;99.90;;;;;;5072021;28;20448;-71
2022/07/11 05:30:01;;;;;;;4.90;2.50;;;13.10;99.90;;;;;;5071340;28;20437;-71
2022/07/11 05:32:56;;;;;;;4.90;2.40;;;13.10;99.90;;;;;;5081719;28;20467;-70
2022/07/11 05:35:46;;;;;;;9.10;2.60;;;13.20;99.90;;;;;;5056804;28;20579;-71
2022/07/11 05:38:41;;;;;;;4.07;2.63;;;13.20;99.90;;;;;;5061041;28;20655;-71
2022/07/11 05:41:35;;;;;;;6.60;2.70;;;13.30;99.90;;;;;;5060637;28;20457;-71
2022/07/11 05:44:31;;;;;;;3.60;2.30;;;13.40;99.90;;;;;;5070329;28;20865;-73
2022/07/11 05:47:31;;;;;;;5.17;2.47;;;13.40;99.90;;;;;;5069524;28;20445;-71
2022/07/11 05:50:34;;;;;;;6.20;2.93;;;13.50;99.90;;;;;;5060965;28;20449;-71
2022/07/11 05:53:26;;;;;;;4.40;2.40;;;13.60;99.90;;;;;;5069964;28;20530;-71
2022/07/11 05:56:25;;;;;;;2.63;2.30;;;13.60;99.90;;;;;;5064152;28;20579;-71
2022/07/11 05:59:21;;;;;;;6.07;2.50;;;13.70;99.90;;;;;;5068778;28;20877;-72
2022/07/11 06:02:12;;;;;;;4.23;2.17;;;13.70;99.90;;;;;;5063140;28;20996;-71
2022/07/11 06:05:01;;;;;;;2.90;1.90;;;13.80;99.90;;;;;;5063400;28;20473;-71
2022/07/11 06:10:55;;;;;;;3.70;2.47;;;13.90;99.90;;;;;;5075810;28;20482;-70
2022/07/11 06:13:45;;;;;;;5.70;2.27;;;13.90;99.90;;;;;;5066537;28;20491;-71
2022/07/11 06:16:35;;;;;;;3.40;2.30;;;14.00;99.90;;;;;;5068146;28;20496;-71
2022/07/11 06:19:24;;;;;;;4.10;1.93;;;14.10;99.90;;;;;;5051652;28;20656;-71
2022/07/11 06:22:14;;;;;;;6.63;2.00;;;14.10;99.90;;;;;;5066313;28;20453;-72
2022/07/11 06:25:06;;;;;;;2.30;1.60;;;14.20;99.90;;;;;;5072381;28;20571;-72
2022/07/11 06:28:00;;;;;;;4.90;2.07;;;14.20;99.90;;;;;;5070825;28;20984;-73
2022/07/11 06:30:50;;;;;;;6.30;2.10;;;14.30;99.90;;;;;;5076059;28;20778;-70
2022/07/11 06:33:39;;;;;;;2.23;1.73;;;14.30;99.90;;;;;;5074743;28;20456;-70
2022/07/11 06:36:28;;;;;;;5.47;2.07;;;14.40;99.90;;;;;;5068922;28;20629;-70
2022/07/11 06:39:16;;;;;;;7.13;1.60;;;14.40;99.90;;;;;;5065153;28;20475;-70
2022/07/11 06:42:05;;;;;;;4.67;1.90;;;14.50;99.90;;;;;;5069243;28;20781;-70
2022/07/11 06:44:54;;;;;;;3.00;1.70;;;14.50;99.90;;;;;;5077498;22;20463;-73
2022/07/11 06:47:44;;;;;;;2.67;2.10;;;14.60;99.90;;;;;;5021998;28;20454;-74
2022/07/11 06:50:36;;;;;;;5.20;2.57;;;14.70;99.90;;;;;;5021238;28;20454;-74
2022/07/11 06:53:26;;;;;;;2.60;1.73;;;14.70;99.90;;;;;;5026943;28;20466;-74
2022/07/11 06:56:14;;;;;;;2.43;1.50;;;14.80;99.90;;;;;;5020705;28;20847;-74
2022/07/11 06:59:05;;;;;;;2.87;1.67;;;14.80;99.90;;;;;;5015979;28;20897;-76
2022/07/11 07:01:54;;;;;;;4.10;2.07;;;14.90;99.90;;;;;;5006567;28;20448;-73
2022/07/11 07:04:43;;;;;;;2.30;1.53;;;15.00;99.90;;;;;;5010735;28;20459;-75
2022/07/11 07:07:32;;;;;;;4.73;2.00;;;15.00;99.90;;;;;;5004638;28;20499;-74
2022/07/11 07:10:20;;;;;;;2.90;1.60;;;15.10;99.90;;;;;;5001826;28;20444;-73
2022/07/11 07:13:10;;;;;;;4.20;1.60;;;15.10;99.90;;;;;;5011838;28;20482;-74
2022/07/11 07:15:58;;;;;;;4.07;1.60;;;15.20;99.90;;;;;;4997898;28;20472;-72
2022/07/11 07:18:50;;;;;;;2.10;1.50;;;15.30;99.90;;;;;;5001977;28;20483;-73
2022/07/11 07:21:40;;;;;;;2.07;1.87;;;15.30;99.90;;;;;;5005653;28;20459;-73
2022/07/11 07:24:29;;;;;;;3.07;1.60;;;15.30;99.90;;;;;;5012964;28;20456;-73
2022/07/11 07:27:17;;;;;;;3.00;1.83;;;15.40;99.90;;;;;;5004341;28;24011;-74
2022/07/11 07:30:06;;;;;;;3.40;1.80;;;15.50;99.90;;;;;;5005111;28;20589;-73
2022/07/11 07:32:55;;;;;;;2.23;1.60;;;15.50;99.90;;;;;;5010643;28;20499;-73
2022/07/11 07:35:43;;;;;;;3.67;1.60;;;15.60;99.90;;;;;;5010862;28;20568;-74
2022/07/11 07:38:33;;;;;;;2.60;1.90;;;15.70;99.90;;;;;;5010003;28;20519;-74
2022/07/11 07:41:21;;;;;;;1.70;1.60;;;15.80;99.90;;;;;;5010913;28;20955;-73
2022/07/11 07:44:10;;;;;;;2.43;1.80;;;15.80;99.90;;;;;;5011642;28;20456;-73
2022/07/11 07:46:58;;;;;;;4.57;1.67;;;15.90;99.90;;;;;;5006384;28;20475;-75
2022/07/11 07:49:47;;;;;;;3.07;1.30;;;15.90;99.90;;;;;;5011396;28;20501;-73
2022/07/11 07:52:35;;;;;;;4.90;2.13;;;16.00;99.90;;;;;;5011799;28;20557;-74
2022/07/11 07:55:28;;;;;;;1.40;1.30;;;16.00;99.90;;;;;;5007376;28;20479;-73
2022/07/11 07:58:16;;;;;;;2.53;1.63;;;16.10;99.90;;;;;;5003304;28;20494;-74
2022/07/11 08:04:17;;;;;;;2.37;1.23;;;16.30;99.90;;;;;;5002435;28;22598;-73
2022/07/11 08:07:06;;;;;;;1.83;1.47;;;16.40;99.90;;;;;;5012245;28;20507;-73
2022/07/11 08:09:54;;;;;;;1.57;1.20;;;16.40;99.90;;;;;;5004190;28;20468;-74
2022/07/11 08:12:44;;;;;;;2.27;1.37;;;16.50;99.90;;;;;;5000920;28;20496;-74
2022/07/11 08:15:33;;;;;;;2.50;1.50;;;16.50;99.90;;;;;;5005780;28;20476;-73
2022/07/11 08:18:22;;;;;;;2.03;1.30;;;16.60;99.90;;;;;;5007741;28;20515;-73
2022/07/11 08:21:13;;;;;;;1.40;1.30;;;16.60;99.90;;;;;;5005267;28;20447;-73
2022/07/11 08:24:02;;;;;;;2.30;1.30;;;16.70;99.90;;;;;;5008047;28;20458;-74
2022/07/11 08:26:54;;;;;;;2.03;1.43;;;16.70;99.90;;;;;;5007136;28;20590;-75
2022/07/11 08:30:04;;;;;;;3.23;1.23;;;16.80;99.90;;;;;;5004062;28;20837;-74
2022/07/11 08:32:54;;;;;;;1.73;1.20;;;16.90;99.90;;;;;;5013244;28;20503;-74
2022/07/11 08:35:43;;;;;;;3.47;1.67;;;16.90;99.90;;;;;;5008034;28;20482;-74
2022/07/11 08:38:31;;;;;;;2.07;1.40;;;17.00;99.90;;;;;;5001742;28;20487;-75
2022/07/11 08:41:19;;;;;;;1.20;1.10;;;17.10;99.90;;;;;;5012253;28;20452;-75
2022/07/11 08:44:08;;;;;;;2.00;1.37;;;17.20;99.90;;;;;;5003623;28;22959;-74
2022/07/11 08:46:59;;;;;;;2.37;1.30;;;17.30;99.90;;;;;;5015129;28;20462;-75
2022/07/11 08:49:49;;;;;;;4.90;1.10;;;17.30;99.90;;;;;;5012368;28;20478;-75
2022/07/11 08:52:38;;;;;;;3.20;1.33;;;17.40;99.90;;;;;;5023944;28;20455;-75
2022/07/11 08:55:26;;;;;;;1.30;1.20;;;17.50;99.90;;;;;;5010706;28;20483;-75
2022/07/11 08:58:16;;;;;;;2.43;1.30;;;17.50;99.90;;;;;;5004210;28;20486;-74
2022/07/11 09:01:12;;;;;;;4.00;1.27;;;17.60;99.90;;;;;;5013025;28;20464;-74
2022/07/11 09:04:02;;;;;;;3.40;1.70;;;17.70;99.90;;;;;;5018935;28;20452;-75
2022/07/11 09:06:51;;;;;;;1.53;1.00;;;17.80;99.90;;;;;;5017046;28;20467;-74
2022/07/11 09:09:39;;;;;;;1.80;0.93;;;18.00;99.90;;;;;;5004107;28;20455;-75
2022/07/11 09:12:27;;;;;;;1.70;1.37;;;18.00;99.90;;;;;;5011783;28;20455;-74
2022/07/11 09:15:30;;;;;;;1.33;0.80;;;18.10;99.90;;;;;;5018840;28;20476;-74
2022/07/11 09:18:33;;;;;;;1.57;1.10;;;18.10;99.90;;;;;;5016865;28;20688;-75
2022/07/11 09:27:44;;;;;;;2.10;1.20;;;18.30;99.90;;;;;;5008212;28;20439;-74
2022/07/11 09:30:35;;;;;;;1.97;1.00;;;18.30;99.90;;;;;;5018330;28;20499;-75
2022/07/11 09:33:24;;;;;;;1.20;1.03;;;18.40;99.90;;;;;;5011511;28;20545;-74
2022/07/11 09:36:12;;;;;;;1.37;1.10;;;18.40;99.90;;;;;;5006235;28;20591;-74
2022/07/11 09:39:04;;;;;;;1.10;1.00;;;18.50;99.90;;;;;;5010903;28;20471;-75
2022/07/11 09:41:57;;;;;;;1.17;1.07;;;18.60;99.90;;;;;;5020783;28;20903;-75
2022/07/11 09:44:45;;;;;;;1.27;0.90;;;18.70;99.90;;;;;;5015101;28;20974;-75
2022/07/11 09:47:44;;;;;;;1.33;1.23;;;18.80;99.90;;;;;;5011247;28;20550;-74
2022/07/11 09:50:33;;;;;;;1.47;1.10;;;18.90;99.90;;;;;;5013195;28;20782;-74
2022/07/11 09:53:23;;;;;;;3.17;0.70;;;19.00;99.90;;;;;;5021240;28;20573;-75
2022/07/11 09:56:15;;;;;;;1.00;0.90;;;19.00;99.90;;;;;;5015753;28;20597;-75
2022/07/11 09:59:24;;;;;;;1.47;1.10;;;19.10;99.90;;;;;;5010159;28;20621;-75
2022/07/11 10:02:14;;;;;;;1.30;1.17;;;19.10;99.90;;;;;;5012466;28;20459;-74
2022/07/11 10:05:04;;;;;;;1.80;1.07;;;19.10;99.90;;;;;;5012592;28;20467;-76
2022/07/11 10:07:57;;;;;;;1.27;0.80;;;19.10;99.90;;;;;;5014167;28;20878;-75
2022/07/11 10:10:45;;;;;;;2.03;1.10;;;19.10;99.90;;;;;;5007458;28;21178;-73
2022/07/11 10:13:35;;;;;;;1.70;1.00;;;19.10;99.90;;;;;;5013363;28;20742;-76
2022/07/11 10:16:32;;;;;;;1.20;0.90;;;19.00;99.90;;;;;;5015979;28;20483;-76
2022/07/11 10:19:31;;;;;;;1.23;1.00;;;19.10;99.90;;;;;;5017029;28;20475;-76
2022/07/11 10:22:27;;;;;;;1.90;0.87;;;19.10;99.90;;;;;;5017492;28;20984;-75
2022/07/11 10:25:22;;;;;;;1.20;1.00;;;19.10;99.90;;;;;;5012811;28;21269;-77
2022/07/11 10:28:19;;;;;;;2.20;0.90;;;19.20;99.90;;;;;;5016116;28;20440;-76
2022/07/11 10:31:21;;;;;;;1.90;1.07;;;19.30;99.90;;;;;;5018003;28;20494;-76
2022/07/11 10:34:15;;;;;;;2.27;1.30;;;19.40;99.90;;;;;;5028927;28;20499;-76
2022/07/11 10:37:05;;;;;;;1.33;1.23;;;19.40;99.90;;;;;;5023758;28;20987;-78
2022/07/11 10:39:59;;;;;;;2.30;1.23;;;19.40;99.90;;;;;;5022625;28;20578;-77
2022/07/11 10:42:47;;;;;;;1.97;1.30;;;19.40;99.90;;;;;;5019466;28;20517;-76
2022/07/11 10:45:56;;;;;;;1.50;1.40;;;19.50;99.90;;;;;;5021244;28;21043;-76
2022/07/11 10:49:03;;;;;;;1.40;1.30;;;19.60;99.90;;;;;;5012063;28;21309;-77
2022/07/11 10:51:59;;;;;;;1.30;1.20;;;19.70;99.90;;;;;;4999797;28;20462;-75
2022/07/11 10:55:21;;;;;;;1.20;1.20;;;19.80;99.90;;;;;;5008499;28;20532;-74
2022/07/11 10:58:22;;;;;;;2.53;1.27;;;19.90;99.90;;;;;;5003538;28;20520;-74
2022/07/11 11:01:12;;;;;;;1.03;1.03;;;20.00;99.90;;;;;;5000907;28;20452;-76
2022/07/11 11:04:31;;;;;;;1.13;1.13;;;20.10;99.90;;;;;;5011140;28;20844;-75
2022/07/11 11:07:38;;;;;;;1.17;0.90;;;20.20;99.90;;;;;;5016085;28;20456;-75
2022/07/11 11:10:52;;;;;;;1.40;1.30;;;20.10;99.90;;;;;;5011415;28;20482;-77
2022/07/11 11:13:44;;;;;;;1.20;1.10;;;20.20;99.90;;;;;;5017247;28;20454;-74
2022/07/11 11:16:32;;;;;;;1.50;1.30;;;20.30;99.90;;;;;;5022696;28;20483;-75
2022/07/11 11:19:55;;;;;;;1.10;1.10;;;20.30;99.90;;;;;;5017709;28;20482;-78
2022/07/11 11:23:11;;;;;;;1.40;1.00;;;20.50;99.90;;;;;;5020213;28;20454;-75
2022/07/11 11:26:05;;;;;;;1.50;1.20;;;20.50;99.90;;;;;;5019633;28;21003;-75
2022/07/11 11:28:57;;;;;;;1.10;1.10;;;20.50;99.90;;;;;;5016053;28;20967;-75
2022/07/11 11:31:50;;;;;;;2.30;1.30;;;20.60;99.90;;;;;;5016765;28;21018;-78
2022/07/11 11:34:40;;;;;;;1.67;1.57;;;20.70;99.90;;;;;;5018509;28;21038;-76
2022/07/11 11:37:29;;;;;;;1.93;1.60;;;20.70;99.90;;;;;;5011270;28;20485;-73
2022/07/11 11:40:19;;;;;;;1.90;1.80;;;20.60;99.90;;;;;;5012944;28;20491;-73
2022/07/11 11:43:08;;;;;;;1.90;1.80;;;20.70;99.90;;;;;;5008050;28;20500;-73
2022/07/11 11:45:56;;;;;;;1.40;1.30;;;20.80;99.90;;;;;;5016980;28;20483;-73
2022/07/11 11:48:46;;;;;;;3.13;1.40;;;20.90;99.90;;;;;;5018046;28;20448;-72
2022/07/11 11:51:34;;;;;;;2.30;1.50;;;21.00;99.90;;;;;;5012698;28;20967;-73
2022/07/11 11:54:24;;;;;;;1.60;1.50;;;20.90;99.90;;;;;;5016493;28;20491;-73
2022/07/11 11:57:14;;;;;;;1.80;1.70;;;20.90;99.90;;;;;;5014367;28;20464;-73
2022/07/11 12:00:04;;;;;;;2.40;2.20;;;20.90;99.90;;;;;;5020463;28;20479;-73
2022/07/11 12:02:53;;;;;;;2.67;2.47;;;20.90;99.90;;;;;;5014245;28;20452;-73
2022/07/11 12:05:53;;;;;;;2.30;2.20;;;20.90;99.90;;;;;;5011363;28;21031;-72
2022/07/11 12:08:44;;;;;;;2.33;2.23;;;21.00;99.90;;;;;;5017240;28;20452;-72
2022/07/11 12:11:32;;;;;;;2.30;1.73;;;21.10;99.90;;;;;;5000576;28;20794;-71
2022/07/11 12:14:22;;;;;;;1.90;1.80;;;21.20;99.90;;;;;;5008511;28;20489;-72
2022/07/11 12:17:12;;;;;;;1.70;1.60;;;21.40;99.90;;;;;;5001285;28;20457;-73
2022/07/11 12:20:01;;;;;;;1.90;1.80;;;21.60;99.90;;;;;;5002571;28;20483;-74
2022/07/11 12:22:49;;;;;;;2.17;2.07;;;21.70;99.90;;;;;;5012014;28;24860;-74
2022/07/11 12:25:38;;;;;;;1.63;1.53;;;21.80;99.90;;;;;;5014468;28;20514;-73
2022/07/11 12:28:27;;;;;;;1.70;1.60;;;22.00;99.90;;;;;;5007154;28;20454;-73
2022/07/11 12:31:16;;;;;;;1.90;1.67;;;22.10;99.90;;;;;;5000290;28;20571;-73
2022/07/11 12:34:05;;;;;;;2.43;2.30;;;22.30;99.90;;;;;;5011748;28;20880;-74
2022/07/11 12:37:02;;;;;;;2.37;2.17;;;22.30;99.90;;;;;;5003563;28;20678;-73
2022/07/11 12:39:52;;;;;;;2.63;2.50;;;22.50;99.90;;;;;;5004015;28;20491;-74
2022/07/11 12:42:41;;;;;;;2.60;2.50;;;22.70;99.90;;;;;;5000167;28;20525;-75
2022/07/11 12:45:28;;;;;;;2.80;2.70;;;22.80;99.90;;;;;;5002610;28;20514;-73
2022/07/11 12:48:18;;;;;;;2.63;2.53;;;22.80;99.90;;;;;;5014978;28;20995;-73
2022/07/11 12:51:06;;;;;;;2.67;2.57;;;22.70;99.90;;;;;;5005682;28;20455;-72
2022/07/11 12:54:01;;;;;;;2.50;2.40;;;22.70;99.90;;;;;;5014052;28;20459;-72
2022/07/11 12:56:54;;;;;;;2.40;2.30;;;22.70;99.90;;;;;;5025968;28;20460;-71
2022/07/11 12:59:42;;;;;;;2.30;2.20;;;22.70;99.90;;;;;;5013835;28;20502;-71
2022/07/11 13:02:35;;;;;;;2.30;2.20;;;22.70;99.90;;;;;;5013705;28;20510;-73
2022/07/11 13:05:25;;;;;;;1.90;1.80;;;22.70;99.90;;;;;;5004920;28;21005;-72
2022/07/11 13:11:31;;;;;;;2.03;1.93;;;22.70;99.90;;;;;;5033039;22;20498;-73
2022/07/11 13:17:25;;;;;;;1.80;1.70;;;22.70;99.90;;;;;;5032691;28;20450;-72
2022/07/11 13:20:16;;;;;;;1.73;1.70;;;22.80;99.90;;;;;;5036626;28;20482;-72
2022/07/11 13:23:06;;;;;;;2.23;2.00;;;22.90;99.90;;;;;;5020073;28;20554;-72
2022/07/11 13:26:01;;;;;;;1.63;1.53;;;23.10;99.90;;;;;;5012632;28;20462;-73
2022/07/11 13:28:53;;;;;;;1.60;1.50;;;23.30;99.90;;;;;;5024436;28;20546;-73
2022/07/11 13:31:41;;;;;;;1.67;1.57;;;23.40;99.90;;;;;;5012918;28;20491;-73
2022/07/11 13:34:30;;;;;;;4.60;1.70;;;23.50;99.90;;;;;;5014806;28;20471;-73
2022/07/11 13:37:21;;;;;;;1.90;1.80;;;23.60;99.90;;;;;;5008653;28;20633;-71
2022/07/11 13:40:14;;;;;;;2.10;1.87;;;23.70;99.90;;;;;;5014678;28;20511;-71
2022/07/11 13:43:02;;;;;;;1.80;1.70;;;23.90;99.90;;;;;;5015688;28;20455;-68
2022/07/11 13:45:52;;;;;;;2.10;1.90;;;24.00;99.90;;;;;;5011498;28;20460;-73
2022/07/11 13:48:41;;;;;;;1.83;1.73;;;24.10;99.90;;;;;;5017946;28;20472;-70
2022/07/11 13:51:30;;;;;;;2.30;2.20;;;24.00;99.90;;;;;;5016615;28;20967;-70
2022/07/11 13:54:19;;;;;;;1.60;1.50;;;24.00;99.90;;;;;;5018501;28;20463;-70
2022/07/11 13:57:10;;;;;;;1.50;1.40;;;24.00;99.90;;;;;;5013710;28;20459;-70
2022/07/11 14:00:02;;;;;;;1.83;1.43;;;23.90;99.90;;;;;;5019721;28;20479;-70
2022/07/11 14:02:51;;;;;;;1.57;1.47;;;23.90;99.90;;;;;;5012119;28;20562;-71
2022/07/11 14:05:42;;;;;;;1.30;1.20;;;24.00;99.90;;;;;;5016461;28;20454;-70
2022/07/11 14:08:33;;;;;;;1.83;1.73;;;24.20;99.90;;;;;;5015252;28;20459;-71
2022/07/11 14:11:21;;;;;;;1.40;1.30;;;24.20;99.90;;;;;;5007187;28;20542;-71
2022/07/11 14:14:11;;;;;;;2.60;1.20;;;24.20;99.90;;;;;;5009411;28;20459;-72
2022/07/11 14:17:00;;;;;;;1.00;0.90;;;24.20;99.90;;;;;;5017788;28;20460;-72
2022/07/11 14:19:48;;;;;;;2.70;1.07;;;24.30;99.90;;;;;;5022105;28;20569;-72
2022/07/11 14:22:36;;;;;;;1.00;1.00;;;24.50;99.90;;;;;;5016896;28;20511;-71
2022/07/11 14:25:25;;;;;;;0.97;0.97;;;24.60;99.90;;;;;;5009740;28;20462;-72
2022/07/11 14:28:14;;;;;;;1.00;1.00;;;24.70;99.90;;;;;;5020909;28;20454;-72
2022/07/11 14:31:11;;;;;;;0.70;0.70;;;24.70;99.90;;;;;;5023019;28;20529;-72
2022/07/11 14:34:01;;;;;;;0.83;0.83;;;24.80;99.90;;;;;;5027139;28;20459;-71
2022/07/11 14:36:49;;;;;;;1.90;0.90;;;24.90;99.90;;;;;;5030355;28;20451;-72
2022/07/11 14:39:37;;;;;;;1.33;0.70;;;24.90;99.90;;;;;;5026612;28;20455;-72
2022/07/11 14:42:26;;;;;;;0.80;0.80;;;24.90;99.90;;;;;;5029179;28;20471;-71
2022/07/11 14:45:28;;;;;;;2.47;1.00;;;24.80;99.90;;;;;;5023835;28;21185;-71
2022/07/11 14:48:18;;;;;;;1.00;0.60;;;24.80;99.90;;;;;;5025953;28;20882;-71
2022/07/11 14:51:08;;;;;;;1.07;0.70;;;24.90;99.90;;;;;;5019531;28;20559;-72
2022/07/11 14:53:57;;;;;;;2.20;0.80;;;25.00;99.90;;;;;;5022075;28;20459;-71
2022/07/11 14:56:48;;;;;;;0.90;0.90;;;25.00;99.90;;;;;;5029777;28;22429;-71
2022/07/11 14:59:38;;;;;;;0.73;0.70;;;25.20;99.90;;;;;;5021946;28;20919;-71
2022/07/11 15:05:34;;;;;;;1.90;0.90;;;25.30;99.90;;;;;;5026097;28;20452;-72
2022/07/11 15:14:34;;;;;;;0.70;0.70;;;25.70;99.90;;;;;;5024035;28;20463;-72
2022/07/11 15:17:23;;;;;;;2.30;0.80;;;25.90;99.90;;;;;;5023498;28;20546;-71
2022/07/11 15:20:14;;;;;;;0.60;0.60;;;25.90;99.90;;;;;;5028073;28;20452;-71
2022/07/11 15:23:06;;;;;;;1.03;0.63;;;25.80;99.90;;;;;;5025658;28;20443;-71
2022/07/11 15:25:55;;;;;;;0.80;0.80;;;25.70;99.90;;;;;;5029658;28;20553;-71
2022/07/11 15:28:43;;;;;;;2.47;0.70;;;25.80;99.90;;;;;;5031986;28;20478;-72
2022/07/11 15:31:31;;;;;;;0.80;0.70;;;25.90;99.90;;;;;;5017604;28;20495;-72
2022/07/11 15:34:20;;;;;;;0.70;0.70;;;26.00;99.90;;;;;;5019467;28;21431;-73
2022/07/11 15:37:08;;;;;;;1.00;0.90;;;26.10;99.90;;;;;;5009644;28;20973;-73
2022/07/11 15:39:58;;;;;;;0.60;0.60;;;26.20;99.90;;;;;;5015565;28;20462;-75
2022/07/11 15:42:53;;;;;;;1.07;0.80;;;26.30;99.90;;;;;;5017887;28;20487;-72
2022/07/11 15:45:42;;;;;;;1.03;0.93;;;26.30;99.90;;;;;;5018210;28;20451;-73
2022/07/11 15:48:33;;;;;;;0.57;0.57;;;26.40;99.90;;;;;;5021153;28;20553;-73
2022/07/11 15:51:25;;;;;;;0.70;0.70;;;26.40;99.90;;;;;;5018647;28;20509;-74
2022/07/11 15:54:15;;;;;;;0.87;0.80;;;26.40;99.90;;;;;;5012768;28;20451;-72
2022/07/11 15:57:07;;;;;;;0.87;0.80;;;26.40;99.90;;;;;;5017086;28;20445;-74
2022/07/11 15:59:55;;;;;;;1.37;0.90;;;26.40;99.90;;;;;;5006923;28;20509;-73
2022/07/11 16:02:48;;;;;;;2.50;0.80;;;26.60;99.90;;;;;;5013229;28;20510;-73
2022/07/11 16:05:38;;;;;;;0.80;0.80;;;26.60;99.90;;;;;;5018473;28;20501;-73
2022/07/11 16:08:27;;;;;;;0.77;0.70;;;26.50;99.90;;;;;;5025396;28;20504;-72
2022/07/11 16:11:15;;;;;;;0.70;0.70;;;26.60;99.90;;;;;;5015879;28;20582;-73
2022/07/11 16:14:05;;;;;;;1.40;0.80;;;26.50;99.90;;;;;;5016612;28;20930;-74
2022/07/11 16:16:53;;;;;;;2.50;0.80;;;26.50;99.90;;;;;;5017975;28;20861;-76
2022/07/11 16:19:43;;;;;;;0.50;0.50;;;26.40;99.90;;;;;;5021655;28;20970;-75
2022/07/11 16:22:31;;;;;;;0.70;0.70;;;26.50;99.90;;;;;;5015973;28;20494;-71
2022/07/11 16:25:20;;;;;;;1.60;0.80;;;26.50;99.90;;;;;;5019332;28;20736;-71
2022/07/11 16:28:08;;;;;;;0.73;0.73;;;26.40;99.90;;;;;;5024728;28;20514;-72
2022/07/11 16:31:04;;;;;;;0.70;0.70;;;26.10;99.90;;;;;;5014908;28;20496;-72
2022/07/11 16:33:54;;;;;;;0.70;0.70;;;26.00;99.90;;;;;;5015612;28;20454;-72
2022/07/11 16:36:42;;;;;;;0.60;0.60;;;26.10;99.90;;;;;;5019300;28;20452;-71
2022/07/11 16:45:49;;;;;;;0.70;0.70;;;26.00;99.90;;;;;;5018544;28;20582;-72
2022/07/11 16:48:40;;;;;;;0.70;0.70;;;26.00;99.90;;;;;;5017328;28;20470;-72